Terminal Aerodrome Forecast
Issued by NWS Corpus Christi, TX

Home | Current Version | Previous Version | Text Only | Print | Product List | Glossary On
Versions: 1 2 3 4 5 6 7 8 9 10 11 12 13 14 15 16 17 18 19 20
000
FTUS44 KCRP 020542
TAFCRP
TAF
KCRP 020542Z 0206/0306 06008KT 5SM BR VCSH BKN015 BKN025
     FM020900 02012KT 5SM BR VCSH OVC015
     FM021100 02014KT 5SM BR VCTS OVC015CB
     FM021400 36015G20KT P6SM VCSH BKN015 OVC025
     FM022000 01017G23KT P6SM BKN035
     FM030100 01008KT P6SM SCT040=

USA.gov is the U.S. government's official web portal to all federal, state and local government web resources and services.